Time;durP1;ratioP1;P1;durP2;ratioP2;P2;SDS_P1;SDS_P2;PMS_P1;PMS_P2;Temp;Humidity;BMP_temperature;BMP_pressure;BME280_temperature;BME280_humidity;BME280_pressure;Samples;Min_cycle;Max_cycle;Signal;HPM_P1;HPM_P2
2022/08/16 04:02:10;;;;;;;30.30;27.53;;;19.70;99.90;;;;;;5097431;23;20579;-71
2022/08/16 04:04:38;;;;;;;28.07;25.40;;;19.80;99.90;;;;;;4894724;29;20517;-69
2022/08/16 04:07:07;;;;;;;29.23;26.33;;;19.70;99.90;;;;;;4895465;29;20959;-69
2022/08/16 04:09:35;;;;;;;29.23;26.20;;;19.70;99.90;;;;;;4896435;29;20801;-71
2022/08/16 04:12:02;;;;;;;29.23;26.17;;;19.70;99.90;;;;;;4897654;29;20498;-71
2022/08/16 04:14:28;;;;;;;30.83;27.83;;;19.70;99.90;;;;;;4895842;29;20497;-71
2022/08/16 04:16:55;;;;;;;30.70;27.70;;;19.60;99.90;;;;;;4893123;29;20999;-71
2022/08/16 04:19:25;;;;;;;31.70;28.67;;;19.60;99.90;;;;;;4894960;29;20478;-71
2022/08/16 04:21:52;;;;;;;29.37;26.40;;;19.70;99.90;;;;;;4895224;29;20607;-71
2022/08/16 04:24:20;;;;;;;29.50;26.83;;;19.70;99.90;;;;;;4895751;29;20501;-72
2022/08/16 04:26:46;;;;;;;29.53;26.50;;;19.60;99.90;;;;;;4896691;29;20983;-71
2022/08/16 04:29:14;;;;;;;29.27;26.47;;;19.60;99.90;;;;;;4897523;29;20470;-71
2022/08/16 04:31:41;;;;;;;30.03;27.17;;;19.70;99.90;;;;;;4895951;29;21027;-72
2022/08/16 04:34:08;;;;;;;30.03;27.03;;;19.60;99.90;;;;;;4890270;29;20486;-72
2022/08/16 04:36:36;;;;;;;29.20;26.60;;;19.70;99.90;;;;;;4889555;29;20499;-70
2022/08/16 04:39:03;;;;;;;30.40;27.33;;;19.70;99.90;;;;;;4894878;29;20489;-69
2022/08/16 04:41:30;;;;;;;35.83;28.20;;;19.70;99.90;;;;;;4895077;29;20883;-69
2022/08/16 04:43:57;;;;;;;30.57;27.60;;;19.70;99.90;;;;;;4895318;29;20473;-68
2022/08/16 04:46:24;;;;;;;30.10;27.30;;;19.70;99.90;;;;;;4890995;29;20474;-70
2022/08/16 04:48:50;;;;;;;30.10;27.27;;;19.70;99.90;;;;;;4896603;29;20482;-69
2022/08/16 04:51:18;;;;;;;30.80;27.73;;;19.80;99.90;;;;;;4895703;29;21028;-70
2022/08/16 04:53:46;;;;;;;29.73;26.80;;;19.80;99.90;;;;;;4893446;29;20479;-69
2022/08/16 04:56:13;;;;;;;29.17;26.60;;;19.80;99.90;;;;;;4894157;29;20490;-69
2022/08/16 04:58:40;;;;;;;30.67;27.57;;;20.00;99.90;;;;;;4895987;29;20497;-69
2022/08/16 05:01:07;;;;;;;29.23;26.50;;;20.10;99.90;;;;;;4894656;29;20504;-69
2022/08/16 05:03:33;;;;;;;28.63;25.80;;;20.10;99.90;;;;;;4896262;29;20620;-68
2022/08/16 05:06:00;;;;;;;26.57;24.20;;;20.30;99.90;;;;;;4895929;29;20476;-69
2022/08/16 05:08:28;;;;;;;27.07;24.37;;;20.40;99.90;;;;;;4894915;29;20910;-70
2022/08/16 05:10:56;;;;;;;27.57;25.07;;;20.40;99.90;;;;;;4895706;29;21045;-70
2022/08/16 05:13:23;;;;;;;27.20;24.60;;;20.50;99.90;;;;;;4895916;29;20485;-70
2022/08/16 05:15:50;;;;;;;27.90;25.23;;;20.50;99.90;;;;;;4894863;29;20495;-70
2022/08/16 05:18:16;;;;;;;26.30;23.90;;;20.50;99.90;;;;;;4894986;29;20479;-70
2022/08/16 05:20:43;;;;;;;27.50;25.00;;;20.50;99.90;;;;;;4894862;29;20499;-69
2022/08/16 05:23:10;;;;;;;27.80;25.27;;;20.60;99.90;;;;;;4889937;29;20966;-70
2022/08/16 05:25:36;;;;;;;29.37;26.63;;;20.50;99.90;;;;;;4893784;29;20468;-69
2022/08/16 05:28:04;;;;;;;27.83;25.30;;;20.60;99.90;;;;;;4893065;29;20893;-69
2022/08/16 05:30:31;;;;;;;26.77;24.27;;;20.60;99.90;;;;;;4896308;29;20496;-69
2022/08/16 05:32:58;;;;;;;28.30;25.43;;;20.60;99.90;;;;;;4889253;29;20539;-69
2022/08/16 05:35:25;;;;;;;28.20;25.47;;;20.60;99.90;;;;;;4896366;29;20591;-70
2022/08/16 05:37:51;;;;;;;27.97;24.97;;;20.70;99.90;;;;;;4897006;29;20484;-69
2022/08/16 05:40:18;;;;;;;26.77;24.20;;;20.70;99.90;;;;;;4895532;29;20954;-69
2022/08/16 05:42:45;;;;;;;25.50;23.20;;;20.70;99.90;;;;;;4894995;29;20477;-69
2022/08/16 05:45:13;;;;;;;27.93;25.33;;;20.80;99.90;;;;;;4896016;29;20959;-68
2022/08/16 05:47:40;;;;;;;27.73;25.23;;;20.80;99.90;;;;;;4895914;29;20949;-69
2022/08/16 05:50:08;;;;;;;27.83;25.37;;;20.90;99.90;;;;;;4892534;29;20587;-71
2022/08/16 05:52:35;;;;;;;27.20;24.70;;;20.90;99.90;;;;;;4895294;29;21289;-69
2022/08/16 05:55:02;;;;;;;27.40;24.90;;;20.90;99.90;;;;;;4893548;29;20473;-68
2022/08/16 05:57:28;;;;;;;27.33;24.83;;;21.00;99.90;;;;;;4894354;29;20488;-68
2022/08/16 05:59:55;;;;;;;25.90;23.50;;;21.00;99.90;;;;;;4896431;29;20465;-69
2022/08/16 06:02:26;;;;;;;26.70;24.30;;;21.00;99.90;;;;;;4892037;29;20598;-68
2022/08/16 06:04:53;;;;;;;25.40;23.10;;;21.10;99.90;;;;;;4895922;29;20473;-69
2022/08/16 06:07:20;;;;;;;25.90;23.67;;;21.20;99.90;;;;;;4894850;29;20478;-68
2022/08/16 06:09:47;;;;;;;25.00;22.80;;;21.20;99.90;;;;;;4895655;29;20473;-68
2022/08/16 06:12:14;;;;;;;26.77;24.37;;;21.30;99.90;;;;;;4894435;29;21030;-68
2022/08/16 06:14:41;;;;;;;24.87;22.67;;;21.40;99.90;;;;;;4895667;29;20935;-68
2022/08/16 06:17:08;;;;;;;24.00;21.57;;;21.50;99.90;;;;;;4891993;29;20501;-68
2022/08/16 06:19:36;;;;;;;22.53;20.73;;;21.80;99.90;;;;;;4896459;29;20473;-69
2022/08/16 06:22:03;;;;;;;23.17;21.17;;;22.20;99.90;;;;;;4893512;29;20589;-69
2022/08/16 06:24:29;;;;;;;22.50;20.50;;;22.60;99.90;;;;;;4894390;29;20476;-67
2022/08/16 06:26:56;;;;;;;20.20;18.67;;;23.10;99.90;;;;;;4894553;29;20575;-68
2022/08/16 06:29:23;;;;;;;19.77;18.10;;;23.60;99.90;;;;;;4895349;29;20472;-69
2022/08/16 06:31:49;;;;;;;19.63;18.20;;;24.10;99.90;;;;;;4892540;29;20499;-69
2022/08/16 06:34:16;;;;;;;19.97;18.23;;;24.40;99.90;;;;;;4886670;29;20495;-69
2022/08/16 06:36:44;;;;;;;18.47;16.97;;;24.80;99.90;;;;;;4894830;29;20491;-68
2022/08/16 06:39:11;;;;;;;17.37;16.07;;;25.30;99.90;;;;;;4889751;29;20486;-68
2022/08/16 06:41:38;;;;;;;16.30;15.00;;;25.60;99.90;;;;;;4892608;29;20988;-68
2022/08/16 06:44:04;;;;;;;18.77;17.40;;;26.10;99.90;;;;;;4891663;29;20468;-68
2022/08/16 06:46:34;;;;;;;17.37;15.97;;;26.80;99.90;;;;;;4894700;29;20624;-69
2022/08/16 06:49:00;;;;;;;16.10;15.10;;;27.10;99.90;;;;;;4891800;29;20474;-70
2022/08/16 06:51:27;;;;;;;15.73;14.73;;;27.00;99.90;;;;;;4895320;29;20832;-69
2022/08/16 06:53:55;;;;;;;15.03;14.03;;;27.10;99.90;;;;;;4893534;29;20474;-68
2022/08/16 06:56:22;;;;;;;15.97;14.87;;;27.30;99.90;;;;;;4893782;29;20502;-68
2022/08/16 06:58:49;;;;;;;15.40;14.50;;;27.40;99.90;;;;;;4894591;29;20481;-69
2022/08/16 07:01:15;;;;;;;13.77;12.97;;;27.60;99.90;;;;;;4892752;29;20999;-69
2022/08/16 07:03:43;;;;;;;13.60;12.80;;;28.00;99.90;;;;;;4894128;29;20843;-68
2022/08/16 07:06:10;;;;;;;14.00;13.20;;;28.00;99.90;;;;;;4892593;29;20537;-69
2022/08/16 07:08:37;;;;;;;16.03;14.93;;;28.30;99.90;;;;;;4893334;29;20478;-68
2022/08/16 07:11:05;;;;;;;14.70;13.70;;;28.50;99.90;;;;;;4894704;29;20577;-68
2022/08/16 07:13:32;;;;;;;13.23;12.37;;;28.60;99.90;;;;;;4892867;29;20471;-68
2022/08/16 07:15:59;;;;;;;12.37;11.73;;;28.80;99.90;;;;;;4894586;29;20604;-69
2022/08/16 07:18:26;;;;;;;13.77;12.93;;;28.70;99.90;;;;;;4893255;29;20576;-69
2022/08/16 07:20:53;;;;;;;12.90;12.00;;;28.20;99.90;;;;;;4892877;29;20494;-68
2022/08/16 07:23:20;;;;;;;14.60;13.70;;;27.80;99.90;;;;;;4890385;29;20818;-68
2022/08/16 07:25:47;;;;;;;13.20;12.40;;;27.40;99.90;;;;;;4891804;29;20475;-68
2022/08/16 07:28:17;;;;;;;12.67;11.77;;;27.70;99.90;;;;;;4892615;29;20499;-69
2022/08/16 07:30:44;;;;;;;11.70;11.10;;;28.20;99.90;;;;;;4887315;29;20494;-69
2022/08/16 07:33:12;;;;;;;10.20;9.57;;;28.70;99.90;;;;;;4888379;29;20960;-69
2022/08/16 07:35:39;;;;;;;10.93;10.33;;;29.00;99.90;;;;;;4893423;29;20474;-69
2022/08/16 07:38:06;;;;;;;10.17;9.67;;;29.40;99.90;;;;;;4891408;29;20474;-69
2022/08/16 07:40:33;;;;;;;9.10;8.70;;;29.70;99.90;;;;;;4894249;29;20865;-69
2022/08/16 07:43:00;;;;;;;7.70;7.40;;;29.40;99.90;;;;;;4892879;29;20851;-69
2022/08/16 07:45:28;;;;;;;7.63;7.33;;;28.90;99.90;;;;;;4895087;29;20466;-68
2022/08/16 07:47:55;;;;;;;8.50;7.97;;;28.30;99.90;;;;;;4893658;29;20971;-68
2022/08/16 07:50:22;;;;;;;8.17;7.67;;;27.80;99.90;;;;;;4893881;29;20467;-68
2022/08/16 07:52:48;;;;;;;7.73;7.20;;;27.50;99.90;;;;;;4893618;29;20471;-68
2022/08/16 07:55:18;;;;;;;8.50;8.07;;;27.20;99.90;;;;;;4893165;29;21052;-68
2022/08/16 07:57:45;;;;;;;8.60;8.10;;;27.00;99.90;;;;;;4894266;29;20627;-69
2022/08/16 08:00:12;;;;;;;8.63;8.23;;;26.80;99.90;;;;;;4892750;29;20868;-69
2022/08/16 08:02:41;;;;;;;8.47;7.97;;;26.40;99.90;;;;;;4893818;29;20490;-68
2022/08/16 08:05:08;;;;;;;9.90;9.10;;;26.20;99.90;;;;;;4893539;29;20475;-69
2022/08/16 08:07:35;;;;;;;7.90;7.30;;;26.10;99.90;;;;;;4893578;29;20496;-68
2022/08/16 08:10:02;;;;;;;8.83;8.00;;;26.20;99.90;;;;;;4890720;29;20475;-69
2022/08/16 08:12:29;;;;;;;8.70;7.87;;;26.30;99.90;;;;;;4892706;29;20583;-68
2022/08/16 08:14:56;;;;;;;8.07;7.73;;;26.50;99.90;;;;;;4892650;29;20475;-68
2022/08/16 08:17:23;;;;;;;7.90;7.20;;;26.60;99.90;;;;;;4890803;29;21039;-69
2022/08/16 08:19:52;;;;;;;8.63;8.13;;;26.60;99.90;;;;;;4893258;29;20869;-68
2022/08/16 08:22:19;;;;;;;8.70;8.23;;;26.50;99.90;;;;;;4893113;29;20491;-69
2022/08/16 08:24:45;;;;;;;7.77;7.43;;;26.40;99.90;;;;;;4894629;29;20562;-68
2022/08/16 08:27:13;;;;;;;8.63;8.23;;;26.30;99.90;;;;;;4896245;29;20471;-68
2022/08/16 08:29:41;;;;;;;8.67;8.10;;;26.30;99.90;;;;;;4894974;29;20480;-68
2022/08/16 08:32:09;;;;;;;9.27;8.67;;;26.30;99.90;;;;;;4895721;29;20598;-68
2022/08/16 08:34:35;;;;;;;8.80;8.30;;;26.40;99.90;;;;;;4888546;29;20498;-68
2022/08/16 08:37:04;;;;;;;8.63;8.23;;;26.50;99.90;;;;;;4895681;29;20559;-69
2022/08/16 08:39:31;;;;;;;8.40;8.00;;;26.50;99.90;;;;;;4893825;29;20517;-68
2022/08/16 08:41:58;;;;;;;8.33;7.87;;;26.60;99.90;;;;;;4895963;29;20507;-68
2022/08/16 08:44:24;;;;;;;8.80;8.30;;;26.60;99.90;;;;;;4889351;29;20499;-68
2022/08/16 08:46:55;;;;;;;9.63;9.03;;;26.60;99.90;;;;;;4896019;29;20468;-68
2022/08/16 08:49:22;;;;;;;9.87;9.20;;;26.50;99.90;;;;;;4894559;29;20479;-68
2022/08/16 08:51:49;;;;;;;9.57;8.97;;;26.50;99.90;;;;;;4897780;29;20488;-68
2022/08/16 08:54:17;;;;;;;9.23;8.60;;;26.40;99.90;;;;;;4890444;29;20472;-69
2022/08/16 08:56:44;;;;;;;9.90;9.20;;;26.40;99.90;;;;;;4895555;29;20516;-68
2022/08/16 08:59:12;;;;;;;9.90;9.20;;;26.40;99.90;;;;;;4894706;29;20825;-68
2022/08/16 09:01:39;;;;;;;9.23;8.80;;;26.30;99.90;;;;;;4895628;29;20507;-69
2022/08/16 09:04:07;;;;;;;9.63;9.03;;;26.30;99.90;;;;;;4891326;29;20476;-68
2022/08/16 09:06:34;;;;;;;10.37;9.40;;;26.30;99.90;;;;;;4894811;29;20814;-68
2022/08/16 09:09:01;;;;;;;9.87;9.30;;;26.30;99.90;;;;;;4889250;29;20570;-69
2022/08/16 09:11:29;;;;;;;11.30;10.40;;;26.30;99.90;;;;;;4896566;29;20518;-69
2022/08/16 09:13:56;;;;;;;10.20;9.70;;;26.30;99.90;;;;;;4895357;29;20499;-68
2022/08/16 09:16:22;;;;;;;11.03;10.23;;;26.30;99.90;;;;;;4896316;29;20480;-68
2022/08/16 09:18:49;;;;;;;10.37;9.73;;;26.40;99.90;;;;;;4895528;29;20482;-69
2022/08/16 09:21:16;;;;;;;9.50;9.00;;;26.50;99.90;;;;;;4896150;29;20566;-69
2022/08/16 09:23:44;;;;;;;9.60;9.00;;;26.60;99.90;;;;;;4892638;29;20472;-68
2022/08/16 09:26:14;;;;;;;8.87;8.47;;;26.70;99.90;;;;;;4894083;29;20471;-69
2022/08/16 09:28:44;;;;;;;9.57;8.80;;;26.50;99.90;;;;;;4895123;29;20501;-69
2022/08/16 09:31:11;;;;;;;9.67;9.13;;;26.40;99.90;;;;;;4896740;29;20519;-69
2022/08/16 09:33:39;;;;;;;9.03;8.33;;;26.30;99.90;;;;;;4891708;29;20472;-69
2022/08/16 09:36:07;;;;;;;7.83;7.53;;;26.20;99.90;;;;;;4896268;29;20935;-69
2022/08/16 09:38:34;;;;;;;7.47;7.07;;;26.00;99.90;;;;;;4901629;29;20506;-69
2022/08/16 09:41:03;;;;;;;8.90;8.27;;;25.90;99.90;;;;;;4894698;29;20527;-69
2022/08/16 09:43:30;;;;;;;8.60;8.20;;;25.90;99.90;;;;;;4894367;29;20476;-69
2022/08/16 09:45:59;;;;;;;10.37;9.67;;;25.80;99.90;;;;;;4895574;29;20484;-69
2022/08/16 09:48:27;;;;;;;8.20;7.80;;;25.70;99.90;;;;;;4894452;29;20472;-69
2022/08/16 09:50:54;;;;;;;8.90;8.40;;;25.60;99.90;;;;;;4894491;29;20495;-70
2022/08/16 09:53:22;;;;;;;8.90;8.40;;;25.60;99.90;;;;;;4890848;29;20484;-69
2022/08/16 09:55:51;;;;;;;10.00;8.97;;;25.60;99.90;;;;;;4891953;29;20472;-69
2022/08/16 09:58:19;;;;;;;9.07;8.60;;;25.70;99.90;;;;;;4892067;29;21016;-69
2022/08/16 10:00:45;;;;;;;9.00;8.50;;;26.00;99.90;;;;;;4896613;29;20491;-69
2022/08/16 10:03:13;;;;;;;8.93;8.37;;;26.20;99.90;;;;;;4895023;29;20823;-69
2022/08/16 10:05:40;;;;;;;9.37;8.70;;;26.50;99.90;;;;;;4898336;29;20464;-69
2022/08/16 10:08:07;;;;;;;10.20;9.60;;;26.70;99.90;;;;;;4891121;29;20552;-69
2022/08/16 10:10:34;;;;;;;10.00;9.40;;;26.90;99.90;;;;;;4893645;29;20519;-68
2022/08/16 10:13:10;;;;;;;10.17;9.20;;;27.20;99.90;;;;;;4893606;29;20669;-69
2022/08/16 10:15:38;;;;;;;9.37;8.77;;;27.30;99.90;;;;;;4893967;29;20459;-68
2022/08/16 10:18:08;;;;;;;8.33;8.03;;;27.50;99.90;;;;;;4896087;29;20496;-67
2022/08/16 10:20:40;;;;;;;8.37;7.77;;;27.50;99.90;;;;;;4895658;29;20504;-67
2022/08/16 10:23:09;;;;;;;8.77;8.27;;;27.60;99.90;;;;;;4897159;29;20483;-67
2022/08/16 10:25:39;;;;;;;9.43;8.73;;;27.60;99.90;;;;;;4908599;29;20485;-68
2022/08/16 10:28:07;;;;;;;8.60;8.10;;;27.70;99.90;;;;;;4895535;29;20472;-68
2022/08/16 10:30:34;;;;;;;6.63;6.33;;;27.60;99.90;;;;;;4895870;29;20475;-67
2022/08/16 10:33:01;;;;;;;7.10;6.80;;;27.60;99.90;;;;;;4892033;29;20479;-68
2022/08/16 10:35:28;;;;;;;6.93;6.63;;;27.60;99.90;;;;;;4895221;29;20471;-68
2022/08/16 10:37:56;;;;;;;8.63;7.73;;;27.60;99.90;;;;;;4906195;29;20480;-67
2022/08/16 10:40:23;;;;;;;9.40;8.63;;;27.50;99.90;;;;;;4895740;29;20837;-68
2022/08/16 10:42:50;;;;;;;8.90;8.50;;;27.50;99.90;;;;;;4893243;29;20834;-67
2022/08/16 10:45:17;;;;;;;9.57;9.00;;;27.50;99.90;;;;;;4894607;29;20479;-68
2022/08/16 10:47:44;;;;;;;8.67;7.90;;;27.50;99.90;;;;;;4892392;29;20554;-67
2022/08/16 10:50:11;;;;;;;9.80;8.10;;;27.50;99.90;;;;;;4895991;29;20470;-69
2022/08/16 10:52:38;;;;;;;7.20;6.90;;;27.60;99.90;;;;;;4890977;29;20498;-69
2022/08/16 10:55:11;;;;;;;8.40;8.00;;;27.50;99.90;;;;;;4895148;29;20468;-69
2022/08/16 10:57:38;;;;;;;9.50;8.90;;;27.50;99.90;;;;;;4886992;29;20527;-69
2022/08/16 11:00:08;;;;;;;9.17;8.03;;;27.30;99.90;;;;;;4891261;29;20997;-69
2022/08/16 11:02:35;;;;;;;8.50;8.07;;;27.30;99.90;;;;;;4890585;29;20532;-69
2022/08/16 11:05:02;;;;;;;9.07;8.40;;;27.30;99.90;;;;;;4892619;29;20572;-69
2022/08/16 11:07:29;;;;;;;9.00;8.17;;;27.30;99.90;;;;;;4892711;29;20860;-69
2022/08/16 11:09:57;;;;;;;8.00;7.50;;;27.20;99.90;;;;;;4891891;29;20485;-69
2022/08/16 11:12:25;;;;;;;9.03;8.43;;;27.30;99.90;;;;;;4889513;29;20496;-69
2022/08/16 11:14:51;;;;;;;8.60;8.10;;;27.30;99.90;;;;;;4893228;29;20919;-69
2022/08/16 11:17:18;;;;;;;8.10;7.60;;;27.30;99.90;;;;;;4893414;29;20515;-69
2022/08/16 11:19:45;;;;;;;9.70;9.10;;;27.30;99.90;;;;;;4893313;29;20475;-60
2022/08/16 11:22:11;;;;;;;8.93;8.00;;;27.40;99.90;;;;;;4890565;29;20496;-69
2022/08/16 11:24:39;;;;;;;9.00;8.33;;;27.50;99.90;;;;;;4893340;29;20464;-69
2022/08/16 11:27:07;;;;;;;9.00;8.40;;;27.50;99.90;;;;;;4894026;29;20607;-69
2022/08/16 11:29:36;;;;;;;8.97;8.37;;;27.60;99.90;;;;;;4893916;29;20524;-69
2022/08/16 11:32:04;;;;;;;8.57;8.07;;;27.70;99.90;;;;;;4894974;29;20488;-69
2022/08/16 11:34:31;;;;;;;9.57;9.07;;;27.90;99.90;;;;;;4888722;29;20955;-69
2022/08/16 11:36:58;;;;;;;8.40;8.00;;;27.90;99.90;;;;;;4895273;29;20468;-69
2022/08/16 11:39:25;;;;;;;8.97;8.40;;;28.00;99.90;;;;;;4890676;29;22602;-69
2022/08/16 11:41:52;;;;;;;9.07;8.37;;;28.00;99.90;;;;;;4891625;29;20888;-69
2022/08/16 11:44:18;;;;;;;9.10;8.60;;;28.20;99.90;;;;;;4892583;29;20487;-69
2022/08/16 11:46:46;;;;;;;8.30;7.90;;;28.30;99.90;;;;;;4895287;29;20471;-69
2022/08/16 11:49:14;;;;;;;8.60;8.00;;;28.40;99.90;;;;;;4894052;29;20472;-68
2022/08/16 11:51:42;;;;;;;8.07;7.77;;;28.50;99.90;;;;;;4895513;29;20490;-69
2022/08/16 11:54:09;;;;;;;8.23;7.90;;;28.60;99.90;;;;;;4892298;29;20479;-69
2022/08/16 11:56:36;;;;;;;7.30;7.10;;;28.60;99.90;;;;;;4895229;29;20460;-67
2022/08/16 11:59:03;;;;;;;8.40;8.00;;;28.80;99.90;;;;;;4892875;29;20901;-68
2022/08/16 12:01:31;;;;;;;8.37;7.97;;;28.90;99.90;;;;;;4896233;29;21020;-68
2022/08/16 12:03:59;;;;;;;8.00;7.40;;;29.00;99.90;;;;;;4896859;29;20826;-69
2022/08/16 12:06:26;;;;;;;8.47;8.07;;;29.10;99.90;;;;;;4898161;29;20845;-68
2022/08/16 12:08:56;;;;;;;7.53;7.10;;;29.00;99.90;;;;;;4898256;29;20563;-68
2022/08/16 12:11:23;;;;;;;8.40;8.10;;;28.80;99.90;;;;;;4897902;29;20506;-68
2022/08/16 12:13:52;;;;;;;7.60;7.30;;;28.70;99.90;;;;;;4897983;29;20817;-68
2022/08/16 12:16:19;;;;;;;7.10;6.80;;;28.70;99.90;;;;;;4895515;29;20861;-68
2022/08/16 12:18:46;;;;;;;6.90;6.40;;;28.60;99.90;;;;;;4898385;29;20491;-68
2022/08/16 12:21:14;;;;;;;6.93;6.53;;;28.60;99.90;;;;;;4897984;29;20492;-68
2022/08/16 12:23:41;;;;;;;7.50;6.80;;;28.50;99.90;;;;;;4888822;29;20475;-68
2022/08/16 12:26:08;;;;;;;9.10;8.40;;;28.50;99.90;;;;;;4895673;29;20478;-69
2022/08/16 12:28:34;;;;;;;7.73;7.33;;;28.50;99.90;;;;;;4896723;29;20491;-68
2022/08/16 12:31:01;;;;;;;7.50;7.00;;;28.40;99.90;;;;;;4888948;29;20499;-68
2022/08/16 12:33:28;;;;;;;6.43;6.13;;;28.40;99.90;;;;;;4888826;29;20468;-68
2022/08/16 12:35:54;;;;;;;6.90;6.50;;;28.40;99.90;;;;;;4895504;29;20498;-68
2022/08/16 12:38:22;;;;;;;6.33;6.13;;;28.50;99.90;;;;;;4897450;29;20587;-68
2022/08/16 12:40:50;;;;;;;6.93;6.50;;;28.60;99.90;;;;;;4893154;29;20849;-68
2022/08/16 12:43:20;;;;;;;6.43;6.17;;;28.60;99.90;;;;;;4896237;29;20468;-68
2022/08/16 12:45:50;;;;;;;7.80;7.50;;;28.70;99.90;;;;;;4894568;29;20567;-68
2022/08/16 12:51:04;;;;;;;8.47;7.80;;;28.90;99.90;;;;;;4896356;29;21032;-68
2022/08/16 12:53:33;;;;;;;7.32;6.90;;;28.80;99.90;;;;;;4896878;29;20499;-69
2022/08/16 12:56:00;;;;;;;6.17;5.97;;;28.50;99.90;;;;;;4895949;29;20481;-69
2022/08/16 12:58:27;;;;;;;6.50;5.90;;;28.40;99.90;;;;;;4898201;29;20492;-69
2022/08/16 13:00:54;;;;;;;6.47;6.27;;;28.40;99.90;;;;;;4894674;29;21009;-70
2022/08/16 13:03:21;;;;;;;7.43;7.10;;;28.40;99.90;;;;;;4895104;29;20472;-68
2022/08/16 13:05:49;;;;;;;7.40;7.10;;;28.20;99.90;;;;;;4893595;29;20471;-69
2022/08/16 13:08:19;;;;;;;8.30;7.70;;;28.10;99.90;;;;;;4893961;29;20470;-69
2022/08/16 13:10:48;;;;;;;9.87;8.80;;;27.80;99.90;;;;;;4895118;29;20503;-69
2022/08/16 13:13:23;;;;;;;10.13;9.20;;;27.50;99.90;;;;;;4892742;29;20471;-69
2022/08/16 13:15:50;;;;;;;11.30;10.10;;;27.30;99.90;;;;;;4895858;29;20483;-69
2022/08/16 13:18:17;;;;;;;13.30;12.07;;;26.80;99.90;;;;;;4894136;29;20491;-69
2022/08/16 13:20:43;;;;;;;12.73;11.63;;;25.90;99.90;;;;;;4890657;29;20499;-69
2022/08/16 13:23:11;;;;;;;13.07;11.70;;;24.90;99.90;;;;;;4889386;29;20472;-68
2022/08/16 13:25:42;;;;;;;13.23;12.33;;;24.40;99.90;;;;;;4895805;29;20474;-69
2022/08/16 13:28:11;;;;;;;15.17;13.77;;;24.20;99.90;;;;;;4895071;29;20832;-69
2022/08/16 13:30:41;;;;;;;15.37;14.10;;;24.10;99.90;;;;;;4896798;29;20553;-69
2022/08/16 13:33:09;;;;;;;16.20;14.13;;;24.10;99.90;;;;;;4895145;29;21009;-69
2022/08/16 13:35:36;;;;;;;13.87;12.73;;;24.10;99.90;;;;;;4895295;29;20934;-68
2022/08/16 13:38:02;;;;;;;13.67;12.57;;;24.10;99.90;;;;;;4894804;29;20521;-68
2022/08/16 13:40:29;;;;;;;14.17;12.73;;;24.20;99.90;;;;;;4896591;29;20473;-68
2022/08/16 13:42:56;;;;;;;14.17;12.87;;;24.30;99.90;;;;;;4895777;29;20482;-68
2022/08/16 13:45:25;;;;;;;14.10;12.87;;;24.30;99.90;;;;;;4897925;29;20474;-69
2022/08/16 13:47:52;;;;;;;14.40;12.90;;;24.50;99.90;;;;;;4896399;29;20566;-68
2022/08/16 13:50:19;;;;;;;14.90;13.40;;;24.60;99.90;;;;;;4894537;29;21218;-68
2022/08/16 13:52:46;;;;;;;15.63;14.23;;;24.70;99.90;;;;;;4894139;29;20475;-69
2022/08/16 13:55:13;;;;;;;14.77;13.43;;;24.70;99.90;;;;;;4887488;29;20481;-69
2022/08/16 13:57:40;;;;;;;14.57;13.57;;;25.00;99.90;;;;;;4888715;29;20466;-70
2022/08/16 14:00:08;;;;;;;12.57;11.67;;;25.00;99.90;;;;;;4894026;29;20478;-69
2022/08/16 14:02:36;;;;;;;13.70;12.63;;;25.10;99.90;;;;;;4895925;29;20526;-69
2022/08/16 14:05:03;;;;;;;12.87;11.73;;;25.30;99.90;;;;;;4893516;29;20463;-69
2022/08/16 14:07:31;;;;;;;11.30;10.60;;;25.40;99.90;;;;;;4894003;29;20477;-69
2022/08/16 14:09:58;;;;;;;11.10;10.50;;;25.50;99.90;;;;;;4893853;29;20463;-69
2022/08/16 14:12:27;;;;;;;10.97;10.10;;;25.50;99.90;;;;;;4894146;29;20491;-69
2022/08/16 14:14:54;;;;;;;10.67;10.00;;;25.60;99.90;;;;;;4891633;29;20464;-69
2022/08/16 14:17:21;;;;;;;11.27;10.63;;;25.60;99.90;;;;;;4893007;29;20842;-69
2022/08/16 14:19:50;;;;;;;11.70;10.83;;;25.70;99.90;;;;;;4895352;29;20499;-68
2022/08/16 14:22:19;;;;;;;10.57;9.97;;;25.80;99.90;;;;;;4889829;29;20522;-70
2022/08/16 14:24:48;;;;;;;10.43;9.80;;;25.80;99.90;;;;;;4885544;29;20941;-69
2022/08/16 14:27:16;;;;;;;10.30;9.80;;;25.60;99.90;;;;;;4892503;29;20969;-70
2022/08/16 14:29:43;;;;;;;11.43;10.53;;;25.60;99.90;;;;;;4890829;29;20474;-70
2022/08/16 14:32:10;;;;;;;11.70;10.87;;;25.60;99.90;;;;;;4890585;29;20499;-70
2022/08/16 14:34:36;;;;;;;10.43;9.73;;;25.70;99.90;;;;;;4886900;29;20472;-70
2022/08/16 14:37:05;;;;;;;11.00;10.00;;;25.70;99.90;;;;;;4890614;29;20471;-70
2022/08/16 14:39:32;;;;;;;11.73;10.70;;;25.60;99.90;;;;;;4892038;29;20905;-70
2022/08/16 14:42:04;;;;;;;10.80;10.00;;;25.50;99.90;;;;;;4893203;29;20527;-70
2022/08/16 14:44:32;;;;;;;10.70;10.17;;;25.50;99.90;;;;;;4893404;29;20474;-70
2022/08/16 14:46:58;;;;;;;9.50;8.97;;;25.40;99.90;;;;;;4893509;29;20471;-70
2022/08/16 14:49:25;;;;;;;9.70;9.10;;;25.40;99.90;;;;;;4894912;29;20475;-69
2022/08/16 14:51:52;;;;;;;10.13;9.63;;;25.40;99.90;;;;;;4891076;29;20920;-70
2022/08/16 14:54:20;;;;;;;10.40;9.77;;;25.50;99.90;;;;;;4893884;29;20471;-70
2022/08/16 14:56:48;;;;;;;11.20;10.60;;;25.50;99.90;;;;;;4893267;29;21059;-70
2022/08/16 14:59:15;;;;;;;10.00;9.30;;;25.60;99.90;;;;;;4886366;29;20957;-70
2022/08/16 15:01:44;;;;;;;11.03;10.17;;;25.60;99.90;;;;;;4888093;29;20997;-70
2022/08/16 15:04:10;;;;;;;10.80;9.90;;;25.60;99.90;;;;;;4893859;29;20628;-69
2022/08/16 15:06:37;;;;;;;10.90;10.20;;;25.50;99.90;;;;;;4891394;29;20483;-70
2022/08/16 15:09:04;;;;;;;11.17;10.47;;;25.60;99.90;;;;;;4894625;29;20475;-70
2022/08/16 15:11:32;;;;;;;10.20;9.43;;;25.50;99.90;;;;;;4886174;29;20495;-70
2022/08/16 15:13:59;;;;;;;9.20;8.63;;;25.50;99.90;;;;;;4892973;29;20484;-69
2022/08/16 15:16:26;;;;;;;9.97;9.47;;;25.60;99.90;;;;;;4893438;29;20929;-70
2022/08/16 15:18:53;;;;;;;9.43;8.97;;;25.50;99.90;;;;;;4893466;29;20510;-70
2022/08/16 15:21:20;;;;;;;10.40;9.80;;;25.50;99.90;;;;;;4893218;29;20501;-69
2022/08/16 15:23:47;;;;;;;9.77;9.20;;;25.50;99.90;;;;;;4888809;29;20476;-69
2022/08/16 15:26:13;;;;;;;10.63;10.00;;;25.50;99.90;;;;;;4891305;29;20551;-70
2022/08/16 15:28:41;;;;;;;11.27;10.57;;;25.50;99.90;;;;;;4886617;29;20597;-70
2022/08/16 15:31:11;;;;;;;11.77;10.97;;;25.50;99.90;;;;;;4893601;29;20496;-69
2022/08/16 15:33:39;;;;;;;12.97;12.00;;;25.40;99.90;;;;;;4892483;29;20472;-69
2022/08/16 15:36:07;;;;;;;12.60;11.50;;;25.40;99.90;;;;;;4897239;29;20948;-70
2022/08/16 15:38:34;;;;;;;11.83;10.90;;;25.30;99.90;;;;;;4897223;29;20668;-69
2022/08/16 15:41:02;;;;;;;11.70;11.10;;;25.30;99.90;;;;;;4896605;29;20498;-70
2022/08/16 15:43:30;;;;;;;12.70;11.83;;;25.20;99.90;;;;;;4896226;29;20511;-70
2022/08/16 15:48:42;;;;;;;12.37;11.60;;;25.10;99.90;;;;;;4895001;29;20569;-72
2022/08/16 15:51:09;;;;;;;12.53;11.80;;;25.10;99.90;;;;;;4897075;29;20498;-72
2022/08/16 15:53:35;;;;;;;11.67;10.67;;;25.00;99.90;;;;;;4897308;29;20525;-72
2022/08/16 15:56:03;;;;;;;13.20;12.17;;;24.90;99.90;;;;;;4888640;29;20589;-71
2022/08/16 15:58:31;;;;;;;12.93;12.03;;;24.90;99.90;;;;;;4895037;29;20967;-71
2022/08/16 16:01:00;;;;;;;12.70;11.90;;;24.80;99.90;;;;;;4897061;29;20557;-71
2022/08/16 16:03:27;;;;;;;12.80;11.87;;;24.60;99.90;;;;;;4897969;29;20477;-72
2022/08/16 16:05:58;;;;;;;12.87;11.67;;;24.60;99.90;;;;;;4897401;29;20577;-71
2022/08/16 16:08:25;;;;;;;12.20;11.23;;;24.60;99.90;;;;;;4897203;29;20478;-71
2022/08/16 16:10:53;;;;;;;12.10;11.30;;;24.60;99.90;;;;;;4897570;29;20498;-72
2022/08/16 16:13:21;;;;;;;12.00;11.27;;;24.70;99.90;;;;;;4892350;29;20478;-70
2022/08/16 16:15:50;;;;;;;10.67;9.97;;;24.70;99.90;;;;;;4896165;29;20479;-70
2022/08/16 16:18:19;;;;;;;10.60;9.90;;;24.80;99.90;;;;;;4894626;29;20481;-70
2022/08/16 16:20:48;;;;;;;9.83;9.33;;;25.00;99.90;;;;;;4897749;29;20506;-70
2022/08/16 16:23:18;;;;;;;10.97;10.27;;;25.00;99.90;;;;;;4893267;29;20471;-70
2022/08/16 16:25:45;;;;;;;10.33;9.73;;;25.00;99.90;;;;;;4894605;29;20955;-69
2022/08/16 16:28:15;;;;;;;9.73;9.23;;;25.00;99.90;;;;;;4895356;29;20526;-66
2022/08/16 16:30:42;;;;;;;9.40;9.00;;;25.20;99.90;;;;;;4894032;29;20495;-67
2022/08/16 16:33:10;;;;;;;10.60;9.80;;;25.30;99.90;;;;;;4895529;29;21079;-67
2022/08/16 16:35:38;;;;;;;9.40;8.90;;;25.30;99.90;;;;;;4911030;23;21068;-63
2022/08/16 16:38:05;;;;;;;9.13;8.63;;;25.40;99.90;;;;;;4896491;29;21414;-63
2022/08/16 16:40:34;;;;;;;8.37;7.97;;;25.50;99.90;;;;;;4894716;29;20546;-61
2022/08/16 16:43:01;;;;;;;8.53;8.03;;;25.60;99.90;;;;;;4894177;29;20560;-62